the time You need

Borgo Tossignano MTB

Borgo Tossignano, Bologna   Italy

domenica 19 aprile 2015

Percorsi

LUNGO - 27.0 Km

 

CORTO - 14.0 Km

Servizi

ADSCOSTPunti KS Ranking

Chip

Circuiti

Gessi & Calanchi BikeRomagna Bike Cup

Ente

FCI

CLASSIFICA

LUNGO - 27.0 Km

Pos Atleta Sesso Cat PosC Team Tempo Media RTime
1 BUCCI EMANUELE M M1 1 ASD TEAM BIKE VALCONCA 01:16:30.11 21,18 01:16:30.11
2 MAZZONI AGOSTINO M M1 2 180 BPM 01:18:00.15 20,77 01:18:00.15
3 PUGLISI DANIELE M ELMT 1 ASD SUPERTEAM VILLA VERUCCHIO 01:18:10.65 20,72 01:18:10.65
4 FABBRI CHRISTIAN M M3 1 TEAM PASSION FAENTINA 01:18:43.40 20,58 01:18:43.40
5 CAPECE MATTIA M M1 3 KTM FORTI E LIBERI 01:19:28.15 20,39 01:19:28.15
6 ZAMA LORENZO M M1 4 TEAM PASSION FAENTINA 01:19:29.15 20,38 01:19:29.15
7 GALAMINI MAURIZIO M M5 1 ROMAGNA BIKE GRANDI EVENTI 01:19:30.15 20,38 01:19:30.15
8 BOVINO MARIO M M4 1 KTM FORTI E LIBERI 01:20:06.90 20,22 01:20:06.90
9 POLVERINO ANDREA M M1 5 KTM FORTI E LIBERI 01:20:07.65 20,22 01:20:07.65
10 FRANCIONI LUCA M M1 6 BENESSERE E SPORT SSD A RL 01:20:40.65 20,08 01:20:40.65
11 RAGGI FABIO M M2 1 GOOD BIKE AS RONCOFREDDESE 01:20:41.40 20,08 01:20:41.40
12 GARELLI DAVIDE M M1 7 SCORPION BIKE MTB 01:21:07.65 19,97 01:21:07.65
13 TEDESCHI DAMIANO M M1 8 TEAM K-ONE ASD 01:21:34.90 19,86 01:21:34.90
14 MAZZONI ALESSANDRO M M1 9 180 BPM 01:21:39.40 19,84 01:21:39.40
15 VALENTINI STEFANO M M2 2 180 BPM 01:21:42.65 19,83 01:21:42.65
16 PARINI MARCELLO M M4 2 VITAMINA TEAM 01:22:13.91 19,70 01:22:13.91
17 BARBERINI ALESSANDRO M JUN 1 ASD CINGHIALI DI MARE 01:22:14.41 19,70 01:22:14.41
18 RENZI GIANMARIA M ELMT 2 ASCD VALLE DEL CONCA 01:22:21.66 19,67 01:22:21.66
19 PIANCASTELLI FABIO M M1 10 TEAM PASSION FAENTINA 01:23:09.16 19,48 01:23:09.16
20 URBINATI LUCA M M1 11 TEAM MONDOBICI TECNOPLAST 01:23:21.92 19,44 01:23:21.92
21 BUZZI DIEGO M M2 3 CARRARO TEAM TRENTINO - ALE´ 01:23:33.66 19,39 01:23:33.66
22 MONTORO CHRISTIAN M M3 2 CICLI CENTER 01:24:20.92 19,21 01:24:20.92
23 FOSCHI CRISTIAN M M3 3 ROMAGNA BIKE GRANDI EVENTI 01:24:24.67 19,19 01:24:24.67
24 BENDINI MAINARDI ANTONIO M M3 4 BD FAST 01:24:27.42 19,18 01:24:27.42
25 FIRMIANI MARCO M M2 4 ASD SAMBI TEAM 01:24:33.42 19,16 01:24:33.42
26 RAFFAELLI SAMUELE M M2 5 TEAM MONDOBICI TECNOPLAST 01:24:50.92 19,10 01:24:50.92
27 CANESTRINI GIACOMO M M2 6 SPACCO ASD 01:24:55.66 19,08 01:24:55.66
28 MONTALTI SILVIO M M3 5 CICLOTURISMO MARTORANO 95 01:25:28.92 18,95 01:25:28.92
29 SEMPRINI STEFANO M M5 2 BENESSERE E SPORT SSD A RL 01:25:46.42 18,89 01:25:46.42
30 MURATORI ERIVAN M M2 7 BENESSERE E SPORT SSD A RL 01:25:46.92 18,89 01:25:46.92
31 MANIGRASSO GIOVANNI M M4 3 ASD ONLYOFF DUE RUOTE 01:25:47.67 18,88 01:25:47.67
32 AGNOLETTI PIERPAOLO M M6 1 ASCD VALLE DEL CONCA 01:25:49.67 18,88 01:25:49.67
33 FERRARI ENRICO M M1 12 SPACCO ASD 01:25:55.72 18,86 01:25:55.72
34 FONTANELLI MATTEO M ELMT 3 POL. YOUNG LINE BIKE INNOVATION 01:26:04.17 18,82 01:26:04.17
35 FABBRI CLAUDIO M M1 13 TEAM PASSION FAENTINA 01:26:07.17 18,81 01:26:07.17
36 GALLI MARIANO M 2S 1 BENESSERE E SPORT SSD A RL 01:26:29.71 18,73 01:26:29.71
37 GUGLIELMI MATTEO M M3 6 TEAM BIKE COCIF.COM ASD 01:26:30.11 18,73 01:26:30.11
38 FABBRI SIMONE M M2 8 AS TARTANA BIKE 01:26:30.60 18,73 01:26:30.60
39 RICEPUTI LUCA M M2 9 TEAM ESSERE E MTBICIO 01:26:30.75 18,73 01:26:30.75
40 SARTI DAVIDE M 2S 2 ASD TEAM BIKE VALCONCA 01:26:31.71 18,72 01:26:31.71
41 CALISE MARCO M M6 2 ASCD VALLE DEL CONCA 01:26:34.35 18,71 01:26:34.35
42 ROSSI ANDREA M M4 4 ROMAGNA BIKE GRANDI EVENTI 01:26:56.10 18,63 01:26:56.10
43 STAVOLA LUCA M M1 14 SCORPION BIKE MTB 01:27:02.60 18,61 01:27:02.60
44 BRASINI ALESSANDRO M ELMT 4 TEAM SOLO BICI FORLI´ 01:27:10.60 18,59 01:27:10.60
45 RAGGINI ROBERTO M M5 3 SCORPION BIKE MTB 01:27:18.35 18,56 01:27:18.35
46 FANTINI FABIO M M2 10 ASCD VALLE DEL CONCA 01:27:29.71 18,52 01:27:29.71
47 ZAFFERANI MICHELE M M2 11 SAN MARINO MTB TEAM 01:27:39.60 18,48 01:27:39.60
48 MICHELINI ENZO M M5 4 BICI PER TUTTI ASD 01:28:05.71 18,39 01:28:05.71
49 CAVICCHI CRISTIAN M 2S 3 POL. YOUNG LINE BIKE INNOVATION 01:28:26.61 18,32 01:28:26.61
50 SALVATORI STEFANO M M6 3 KTM FORTI E LIBERI 01:28:27.11 18,32 01:28:27.11
51 BUSSI SIMONE M M2 12 VENTURI ADVENTURE TEAM 01:28:28.36 18,31 01:28:28.36
52 MINZOLINI ROBERTO M M4 5 ASD GZ TEAM YOUNG WILDS 01:28:47.36 18,25 01:28:47.36
53 GUGLIELMI THOMAS M M2 13 SPACCO ASD 01:28:47.86 18,25 01:28:47.86
54 ZANELLA GIAMPIETRO M M5 5 RHODIGIUM TEAM ASD 01:28:50.72 18,24 01:28:50.72
55 CEREDI DANIELE M M2 14 TEAM ESSERE E MTBICIO 01:28:52.36 18,23 01:28:52.36
56 FIORINI FABIO M M4 6 ASD TEAM ENDURANCE 01:30:02.11 17,99 01:30:02.11
57 GHIARONI LUIGI M M4 7 CICLI CENTER 01:30:07.11 17,98 01:30:07.11
58 VANNINI MORENO M 2S 4 BENESSERE E SPORT SSD A RL 01:30:15.11 17,95 01:30:15.11
59 VENTURINI MIRKO M M2 15 BD FAST 01:30:23.61 17,92 01:30:23.61
60 LOMBARDI NICOLÃ M ELMT 5 180 BPM 01:30:35.61 17,88 01:30:35.61
61 FANTINI MASSIMILIANO M M4 8 TEAM K-ONE ASD 01:30:41.36 17,86 01:30:41.36
62 LAMI FLAVIO M M5 6 SCORPION BIKE MTB 01:31:12.72 17,76 01:31:12.72
63 BELLINI IVAN M M3 7 POL. YOUNG LINE BIKE INNOVATION 01:31:13.11 17,76 01:31:13.11
64 BIANCHINI GIORGIO M M5 7 ACD ITALIA NUOVA 01:31:13.31 17,76 01:31:13.31
65 BATTELLI SIMONE M M2 16 UISP COMITATO PARMA 01:31:13.51 17,76 01:31:13.51
66 REGGIANINI CLAUDIO M M2 17 VERNIABIKE ASD 01:31:23.11 17,73 01:31:23.11
67 SAVINO CARMINE M M4 9 TEAM PASSION FAENTINA 01:31:30.72 17,70 01:31:30.72
68 BALDAZZI ANDREA M M2 18 POL. YOUNG LINE BIKE INNOVATION 01:31:37.11 17,68 01:31:37.11
69 RINALDI ANDREA M M4 10 GS MTB 4 COLLI FORNO GUALERZI 01:31:47.11 17,65 01:31:47.11
70 BERTI ANDREA M M1 15 ASCD VALLE DEL CONCA 01:31:48.36 17,65 01:31:48.36
71 PARINI ALBERTO M M4 11 ARTUSIANA BIKE 01:31:48.37 17,65 01:31:48.37
72 PRUNI PAOLO M M4 12 KTM FORTI E LIBERI 01:32:08.86 17,58 01:32:08.86
73 MANFREDINI PAOLO M M3 8 TEAM BOOMERANG 01:32:09.11 17,58 01:32:09.11
74 ALTINI ANDREA M M2 19 KTM FORTI E LIBERI 01:32:35.72 17,50 01:32:35.72
75 MENGOZZI ANDREA M JUN 2 ASD LE SALINE NATURA E SPORT 01:32:48.36 17,46 01:32:48.36
76 TONINI MARCO M 2S 5 BENESSERE E SPORT SSD A RL 01:32:51.86 17,45 01:32:51.86
77 ALBERGHI FRANCESCO M M1 16 ASD DOROBIKE TEAM 01:32:51.86 17,45 01:32:51.86
78 FERRIOLI DEVIS M 2S 6 TEAM PASSION FAENTINA 01:32:52.37 17,44 01:32:52.37
79 PREDIERI GIACOMO M M7 1 BAMBANA BIKE 01:32:52.86 17,44 01:32:52.86
80 PEDROSI CRISTIAN M 2S 7 ASD SUPERTEAM VILLA VERUCCHIO 01:32:55.86 17,43 01:32:55.86
81 SASDELLI MICHELE M 2S 8 BAMBANA BIKE 01:33:04.61 17,41 01:33:04.61
82 BABINI GIOVANNI M M6 4 SC VELOCIRAPTOR 01:33:14.36 17,38 01:33:14.36
83 MAGRINI STEFANO M M6 5 SC VELOCIRAPTOR 01:33:17.72 17,37 01:33:17.72
84 ZANCHINI FABIO M M4 13 TEAM PASSION FAENTINA 01:33:18.73 17,36 01:33:18.73
85 MAGALOTTI DAVIDE M 2S 9 SPACCO ASD 01:33:29.11 17,33 01:33:29.11
86 CARDELLI GIANLUIGI M M4 14 ASD IMOLA BIKE 01:33:47.73 17,27 01:33:47.73
87 QUARANTINI DAVIDE M M3 9 ASD IMOLA BIKE 01:33:47.87 17,27 01:33:47.87
88 GRILLI LUCA M M2 20 ASCD VALLE DEL CONCA 01:33:58.73 17,24 01:33:58.73
89 NARDI MASSIMO M 2S 10 180 BPM 01:34:16.12 17,19 01:34:16.12
90 CAIBUGATTI GIANNI M 2S 11 GRUPPO TNT 01:34:35.73 17,13 01:34:35.73
91 MAMBELLI MARINO M M6 6 ASD TEAM COMACO 01:35:06.73 17,03 01:35:06.73
92 NOBILE PAOLINO M M4 15 ASD ONLYOFF DUE RUOTE 01:35:07.12 17,03 01:35:07.12
93 PIOGGIA LUCA M 2S 12 POL. YOUNG LINE BIKE INNOVATION 01:35:19.12 17,00 01:35:19.12
94 SARTI FILIPPO M M4 16 ASD SAMBI TEAM 01:35:22.87 16,99 01:35:22.87
95 CASADIO FILIPPO M ELMT 6 TEAM PASSION FAENTINA 01:35:51.37 16,90 01:35:51.37
96 BALDAZZI DAVIDE M 2S 13 ASCD VALLE DEL CONCA 01:35:55.62 16,89 01:35:55.62
97 MEDRI FRANCESCO M M5 8 ROMAGNA BIKE GRANDI EVENTI 01:35:59.12 16,88 01:35:59.12
98 PERUGINI PIERO M M2 21 ASD TEAM COMACO 01:36:14.87 16,83 01:36:14.87
99 BONAVITA ILARIO M M5 9 SPACCO ASD 01:36:46.37 16,74 01:36:46.37
100 GARDINI EMANUELE M 2S 14 GS BULGARNO´ BIKE 2008 01:36:48.12 16,74 01:36:48.12
101 GOBBI STEFANO M M1 17 ASCD VALLE DEL CONCA 01:37:03.37 16,69 01:37:03.37
102 TORTOLANI UGO M 2S 15 POL. YOUNG LINE BIKE INNOVATION 01:37:06.12 16,68 01:37:06.12
103 GAVANELLI LORENZO M M2 22 POL. YOUNG LINE BIKE INNOVATION 01:37:07.62 16,68 01:37:07.62
104 ZACCARELLI GIUSEPPE M M3 10 ASD RICCI CICLI 01:37:30.12 16,62 01:37:30.12
105 ACCORSI MATTIA M M1 18 MTB LA RUPE 01:37:49.62 16,56 01:37:49.62
106 MAMBELLI MARCO M M2 23 ASD OTW RAVENNA 01:37:55.87 16,54 01:37:55.87
107 BONETTI MATTEO M M2 24 180 BPM 01:37:59.62 16,53 01:37:59.62
108 DELLA BIANCIA MATTEO M ELMT 7 ASCD VALLE DEL CONCA 01:38:26.12 16,46 01:38:26.12
109 SAPIGNI ALESSANDRO M M3 11 SCORPION BIKE MTB 01:38:27.37 16,46 01:38:27.37
110 POGGIALI NICOLA M JUN 3 ASD LE SALINE NATURA E SPORT 01:38:27.87 16,46 01:38:27.87
111 BECCI MORENO M M6 7 GRUPPO TNT 01:38:48.62 16,40 01:38:48.62
112 MONTANARI MAURO M 2S 16 TEAM PASSION FAENTINA 01:38:53.37 16,38 01:38:53.37
113 BALDO RAFFAELE M M4 17 TEAM PASSION FAENTINA 01:38:54.62 16,38 01:38:54.62
114 NERI FABIO M M5 10 ASD TOSCO-ROMAGNOLA 01:38:55.63 16,38 01:38:55.63
115 MINARDI MARCO M M5 11 TEAM PASSION FAENTINA 01:38:57.13 16,37 01:38:57.13
116 DIONISI FELICE M M3 12 ASD ONLYOFF DUE RUOTE 01:38:59.87 16,37 01:38:59.87
117 MONALDINI ROBERTA F MW1 1 BENESSERE E SPORT SSD A RL 01:39:00.10 16,36 01:39:00.10
118 FRISONI GUIDO M M4 18 BENESSERE E SPORT SSD A RL 01:39:01.37 16,36 01:39:01.37
119 GUIZZARDI MARCO M ELMT 8 ASD ONLYOFF DUE RUOTE 01:39:08.37 16,34 01:39:08.37
120 BRIGLIADORI SANDRO M M6 8 SCORPION BIKE MTB 01:39:10.37 16,34 01:39:10.37
121 COZZOLINO CLAUDIO M M3 13 ASD TEAM COMACO 01:39:10.63 16,34 01:39:10.63
122 MANGIAFERRO MARCO M M3 14 SSD FIRENZUOLA 01:39:11.13 16,33 01:39:11.13
123 VALLICELLI MIRKO M M2 25 TEAM PASSION FAENTINA 01:39:12.87 16,33 01:39:12.87
124 SOVERA ALESSIO M M3 15 SALIMBICI BIKE TEAM RUOTE 01:39:20.38 16,31 01:39:20.38
125 MAURO EMANUELE M ELMT 9 ASD TOSCO-ROMAGNOLA 01:39:31.38 16,28 01:39:31.38
126 BARBERINI EMANUELE M M3 16 ASD MEDINOX 01:39:38.88 16,26 01:39:38.88
127 PAVANI BARBARA F MW2 1 ASD IMOLA BIKE 01:39:46.63 16,24 01:39:46.63
128 BRIGANTI GIANNI M M5 12 180 BPM 01:39:47.63 16,24 01:39:47.63
129 TAIBI FILIPPO M ELMT 10 ASD OTW RAVENNA 01:39:56.13 16,21 01:39:56.13
130 MORRI MIRCO M M4 19 ASD LE SALINE NATURA E SPORT 01:39:59.74 16,20 01:39:59.74
131 MORETTI EMANUELE M M3 17 INDIVIDUALE 01:40:12.38 16,17 01:40:12.38
132 FABBRI STEFANO M M3 18 KTM FORTI E LIBERI 01:40:15.74 16,16 01:40:15.74
133 TAMPELLINI MATTEO M 2S 17 180 BPM 01:40:18.88 16,15 01:40:18.88
134 GASTALDI ELISA F MW1 2 TEAM PASSION FAENTINA 01:40:19.74 16,15 01:40:19.74
135 MIGANI DENIS M 2S 18 ASCD VALLE DEL CONCA 01:40:27.38 16,13 01:40:27.38
136 D´ANGELO SIMONE M ELMT 11 ASCD VALLE DEL CONCA 01:40:27.88 16,13 01:40:27.88
137 MESSINA GIUSEPPE M M6 9 BAMBANA BIKE 01:40:41.88 16,09 01:40:41.88
138 SANTI DANILO M 2S 19 TEAM BIKE 2000 ASD 01:40:44.38 16,08 01:40:44.38
139 ZAGHINI MARZIO M 2S 20 SPACCO ASD 01:41:14.38 16,00 01:41:14.38
140 CHERUBIN MAURIZIO M M7 2 ASD BICIVERDE MONSELICE 01:41:15.63 16,00 01:41:15.63
141 SANTINI ALESSANDRO M M2 26 GS BULGARNO´ BIKE 2008 01:41:21.13 15,98 01:41:21.13
142 RONCASSAGLIA GABRIELE M M4 20 BAMBANA BIKE 01:41:25.38 15,97 01:41:25.38
143 VERNIA FABIO M M4 21 VERNIABIKE ASD 01:41:26.13 15,97 01:41:26.13
144 BUCCINNA MARCO M M3 19 POLISPORTIVA VELO SPORT CONSELICE 01:41:28.74 15,97 01:41:28.74
145 TARABUSI GIULIANO M M4 22 TEAM K-ONE ASD 01:41:37.74 15,94 01:41:37.74
146 SAMBATI PAOLO M M3 20 VERNIABIKE ASD 01:42:06.74 15,87 01:42:06.74
147 CASTELLARI VALERIO M M5 13 ASD LEONARDI RACING TEAM 01:42:11.64 15,85 01:42:11.64
148 BEST TOM M M5 14 ASD ONLYOFF DUE RUOTE 01:42:13.14 15,85 01:42:13.14
149 PALAZZINI DANILO M 2S 21 ASCD VALLE DEL CONCA 01:42:29.39 15,81 01:42:29.39
150 GAUDENZI GUGLIELMO M M6 10 ASCD VALLE DEL CONCA 01:42:32.39 15,80 01:42:32.39
151 DE SIMONE ALESSANDRO M M1 19 GOOD BIKE AS RONCOFREDDESE 01:42:33.14 15,80 01:42:33.14
152 RUGGIERO BRUNO M M5 15 TEAM K-ONE ASD 01:42:34.89 15,79 01:42:34.89
153 CONTI MONIA F MW2 2 BENESSERE E SPORT SSD A RL 01:42:35.64 15,79 01:42:35.64
154 ROVINELLI RICCARDO M 2S 22 SPACCO ASD 01:42:37.89 15,79 01:42:37.89
155 PRATELLI DAVIDE M 2S 23 ASCD VALLE DEL CONCA 01:42:41.64 15,78 01:42:41.64
156 DALL´OSSO CARLO M 2S 24 POL. YOUNG LINE BIKE INNOVATION 01:42:58.39 15,73 01:42:58.39
157 FABIANI FABIO M 2S 25 SPACCO ASD 01:43:02.74 15,72 01:43:02.74
158 DEMARIA ANDREA M M1 20 VERNIABIKE ASD 01:43:11.11 15,70 01:43:11.11
159 MONDUZZI MORENO M M5 16 ASD IMOLA BIKE 01:43:14.39 15,69 01:43:14.39
160 AMADUCCI ROBERTO M M6 11 180 BPM 01:43:14.89 15,69 01:43:14.89
161 FERRETTO LUCA M M1 21 TEAM K-ONE ASD 01:43:22.14 15,67 01:43:22.14
162 CAVIOLI DANIELE M M1 22 ASD LE SALINE NATURA E SPORT 01:43:39.39 15,63 01:43:39.39
163 CERVELLIERI ANDREA M 2S 26 ASCD VALLE DEL CONCA 01:43:47.63 15,61 01:43:47.63
164 BUDELACCI MIRCO M 2S 27 GS TORPADO SURFING SHOP SPORT PROMOTION 01:43:53.64 15,59 01:43:53.64
165 CASTELLUCCI STEFANO M 2S 28 180 BPM 01:43:58.89 15,58 01:43:58.89
166 VALBONESI EMANUELE M M2 27 180 BPM 01:44:08.39 15,56 01:44:08.39
167 AGNOLETTI MARIO M M3 21 UISP RAVENNA 01:44:15.14 15,54 01:44:15.14
168 SELVA FEDERICO M 2S 29 SAN MARINO MTB TEAM 01:44:17.89 15,53 01:44:17.89
169 CALDERONI DAVIDE M M2 28 ASD SAMBI TEAM 01:44:46.63 15,46 01:44:46.63
170 ROSETTI FILIPPO M ELMT 12 180 BPM 01:44:55.15 15,44 01:44:55.15
171 MARANI RICCARDO M M2 29 TEAM PASSION FAENTINA 01:45:10.15 15,40 01:45:10.15
172 BURZACCA ANDREA M M5 17 GS TORPADO SURFING SHOP SPORT PROMOTION 01:45:11.01 15,40 01:45:11.01
173 DI LEVA PIETRO M M5 18 BAMBANA BIKE 01:45:27.15 15,36 01:45:27.15
174 TERZIARI ALBERTO M M5 19 POL. YOUNG LINE BIKE INNOVATION 01:45:40.15 15,33 01:45:40.15
175 GIULIONI GABRIELE M M4 23 ASD TEAM BIKE VALCONCA 01:46:04.40 15,27 01:46:04.40
176 CAVINA ORIANO M M7 3 TEAM K-ONE ASD 01:46:06.65 15,27 01:46:06.65
177 CONTI FABIO M ELMT 13 POL. YOUNG LINE BIKE INNOVATION 01:46:08.15 15,26 01:46:08.15
178 GRAZIA LUCA M M1 23 BAMBANA BIKE 01:46:09.40 15,26 01:46:09.40
179 FIAMMENGHI FLAMIGNI ALBERTO M M3 22 AS TARTANA BIKE 01:46:10.75 15,26 01:46:10.75
180 MINIELLO LEO M M1 24 TEAM BIKE COCIF.COM ASD 01:46:15.40 15,25 01:46:15.40
181 PIANOSI MARCELLO M 2S 30 ASD CESENA BIKE 01:46:16.15 15,24 01:46:16.15
182 BOLLINI STEFANO M M2 30 SAN MARINO MTB TEAM 01:46:22.40 15,23 01:46:22.40
183 TONDI MIRKO M M2 31 MAI DIRE BIKE ASD 01:46:32.40 15,21 01:46:32.40
184 CHIARADIA TULLIO M M2 32 180 BPM 01:46:59.15 15,14 01:46:59.15
185 LORETI DAVIDE M M3 23 POLISPORTIVA TOZZONA 01:47:00.75 15,14 01:47:00.75
186 NANNUZZI FLORIO M M7 4 TEAM BIKE 2000 ASD 01:47:00.90 15,14 01:47:00.90
187 RIGHETTI PIETRO M M6 12 BAMBANA BIKE 01:47:03.40 15,13 01:47:03.40
188 CASTROGIOVANNI ANDREA M M1 25 PEDALE CESENATE CICLI NERI 01:47:20.40 15,09 01:47:20.40
189 CAMPANINI GIANNI M M5 20 PEDALE CESENATE CICLI NERI 01:47:20.61 15,09 01:47:20.61
190 RUGGERI DAVIDE M M2 33 TEAM K-ONE ASD 01:47:56.65 15,01 01:47:56.65
191 RENZI RENZO M M2 34 SC PEDALE BIANCONERO LUGO 01:48:01.40 15,00 01:48:01.40
192 ACCIAI MAURIZIO M M6 13 GRUPPO TNT 01:48:08.90 14,98 01:48:08.90
193 CICOGNANI FABRIZIO M M1 26 180 BPM 01:48:18.65 14,96 01:48:18.65
194 BARTOLINI VALERIA F MW2 3 TEAM TORPEDO BIKE 01:48:19.16 14,96 01:48:19.16
195 CAPPELLINI MATTEO M M3 24 180 BPM 01:48:19.66 14,96 01:48:19.66
196 MARONI MICHELE M M2 35 GOOD BIKE AS RONCOFREDDESE 01:48:24.90 14,94 01:48:24.90
197 BISSIONI LORENZO M M6 14 PEDALE CESENATE CICLI NERI 01:48:45.65 14,90 01:48:45.65
198 CANESTRINI ENRICO M 2S 31 SPACCO ASD 01:48:47.65 14,89 01:48:47.65
199 VENTURI ADRIANO M M3 25 ASD ONLYOFF DUE RUOTE 01:48:47.91 14,89 01:48:47.91
200 GUCCINI DOMENICO M M7 5 TEAM K-ONE ASD 01:49:07.40 14,85 01:49:07.40
201 GRILLINI CRISTIAN M ELMT 14 BAMBANA BIKE 01:49:27.65 14,80 01:49:27.65
202 VENTURI OSCAR M M2 36 BAMBANA BIKE 01:49:30.90 14,79 01:49:30.90
203 GRANDI DANIELE M M4 24 VERNIABIKE ASD 01:50:35.41 14,65 01:50:35.41
204 VISCOMI GIOVANNI M ELMT 15 MTB LA RUPE 01:50:54.41 14,61 01:50:54.41
205 ZAPPI MATTEO M ELMT 16 POL. YOUNG LINE BIKE INNOVATION 01:50:54.76 14,61 01:50:54.76
206 CARLI FLAVIO M M4 25 BENESSERE E SPORT SSD A RL 01:50:55.41 14,61 01:50:55.41
207 BROCCOLI SANDRO M M5 21 TEAM MONDOBICI TECNOPLAST 01:51:19.66 14,55 01:51:19.66
208 MANTOVANI LUCA M M5 22 BAMBANA BIKE 01:51:46.63 14,49 01:51:46.63
209 BOSI FABIO M M2 37 TRIAL BIKE LUGO 01:51:47.63 14,49 01:51:47.63
210 BARTOLONI GIANNI M M5 23 SAN MARINO MTB TEAM 01:51:47.89 14,49 01:51:47.89
211 TOTARO ORNELIO M M3 26 ASD GRUPPO SPORTIVO ESERCITO 01:52:01.63 14,46 01:52:01.63
212 FABBRICA ANDREA M M1 27 SPACCO ASD 01:52:54.89 14,35 01:52:54.89
213 GUALANDI STEFANO M M5 24 TEAM K-ONE ASD 01:53:17.14 14,30 01:53:17.14
214 ZACCARIA DAVIDE M M1 28 VERNIABIKE ASD 01:53:27.14 14,28 01:53:27.14
215 BALDISSERRI MAURO M M5 25 ASD IMOLA BIKE 01:53:28.64 14,28 01:53:28.64
216 BEDETTI MAURIZIO M 2S 32 SCORPION BIKE MTB 01:53:42.39 14,25 01:53:42.39
217 STRADA STEFANO M M4 26 ASD TEAM COMACO 01:53:53.74 14,23 01:53:53.74
218 BAZZOCCHI MARCO M 2S 33 ASD TEAM COMACO 01:53:54.39 14,22 01:53:54.39
219 CROCETTI ENRICO M M5 26 ASD ANNOPRIMO 01:53:57.39 14,22 01:53:57.39
220 CALISESI ROBERTO M M5 27 SPACCO ASD 01:53:57.48 14,22 01:53:57.48
221 VIGNOLI GIULIANO M M5 28 OSTERIA BIKE ASD 01:55:11.39 14,06 01:55:11.39
222 MAVILLA PAOLO M M5 29 TEAM PASSION FAENTINA 01:55:31.14 14,02 01:55:31.14
223 CORADUCCI ALBERTO M M6 15 TEAM K-ONE ASD 01:55:47.74 13,99 01:55:47.74
224 DI CINTIO GIAMPIERO M M5 30 ACD ITALIA NUOVA 01:55:48.40 13,99 01:55:48.40
225 MORDENTI FERNANDO M M6 16 ASD TEAM COMACO 01:56:13.89 13,94 01:56:13.89
226 PUGLISI ALESSANDRO M ELMT 17 ASD SUPERTEAM VILLA VERUCCHIO 01:56:14.40 13,94 01:56:14.40
227 GRANDI ENRICO M 2S 34 TEAM MONDOBICI TECNOPLAST 01:56:15.39 13,94 01:56:15.39
228 MARTINI GIAN LUCA M M3 27 BD FAST 01:56:17.74 13,93 01:56:17.74
229 FERRINI MATTIA M JUN 4 SPACCO ASD 01:56:31.64 13,90 01:56:31.64
230 ROSSI LANZONI ANDREA M M4 27 VERNIABIKE ASD 01:57:50.90 13,75 01:57:50.90
231 FIORAVANTI DANIELE M M5 31 FREE BIKE CESENA 01:57:52.40 13,74 01:57:52.40
232 PERSIANI MARCO M M3 28 BAMBANA BIKE 01:57:52.99 13,74 01:57:52.99
233 CANDI DAVIDE M M2 38 TEAM K-ONE ASD 01:58:54.40 13,62 01:58:54.40
234 IUZZOLINO VITO M M5 32 BD FAST 01:59:37.40 13,54 01:59:37.40
235 GARAVINI DAVIDE M M5 33 180 BPM 01:59:43.65 13,53 01:59:43.65
236 FERRI MAURO M M7 6 BAMBANA BIKE 01:59:45.15 13,53 01:59:45.15
237 PONZO FEDERICO M ELMT 18 VERNIABIKE ASD 02:00:12.65 13,48 02:00:12.65
238 MARIANI EDOARDO M M2 39 ASD SAMBI TEAM 02:00:36.65 13,43 02:00:36.65
239 MAZZINI MARCO M M3 29 BAMBANA BIKE 02:00:37.75 13,43 02:00:37.75
240 CALZOLARI ALESSIO M M3 30 SSD FIRENZUOLA 02:00:46.90 13,41 02:00:46.90
241 GIAINIS GIUSEPPE M ELMT 19 SPEED BIKE 02:01:04.15 13,38 02:01:04.15
242 LUPINI DAVIDE M M1 29 GOOD BIKE AS RONCOFREDDESE 02:01:13.40 13,36 02:01:13.40
243 GOLIA DEBORA F MW1 3 ASD LE SALINE NATURA E SPORT 02:02:12.40 13,26 02:02:12.40
244 SOLFRINI VANNI M M5 34 TEAM ZANETTI ASD 02:02:29.65 13,23 02:02:29.65
245 SEBASTIANI ROBERTO M M3 31 POLISPORTIVA VELO SPORT CONSELICE 02:02:42.65 13,20 02:02:42.65
246 LEONELLI CARLO M M4 28 BAMBANA BIKE 02:03:14.40 13,15 02:03:14.40
247 PROSPERI PAOLO M M4 29 S.C.CERETOLESE 1969 02:03:46.41 13,09 02:03:46.41
248 SAPORA DIEGO M M2 40 TEAM K-ONE ASD 02:03:49.16 13,08 02:03:49.16
249 GOLFERA FABRIZIO M M6 17 TEAM PASSION FAENTINA 02:03:55.16 13,07 02:03:55.16
250 MONTONE NICOLA M M1 30 MTB ADVENTURE BOLOGNA TEAM 02:03:55.99 13,07 02:03:55.99
251 BASSETTI MASSIMO M M6 18 180 BPM 02:05:08.41 12,95 02:05:08.41
252 CHILLO TANIA F MW2 4 ASD ONLYOFF DUE RUOTE 02:05:39.66 12,89 02:05:39.66
253 LUCCHI MASSIMO M M5 35 GS TORPADO SURFING SHOP SPORT PROMOTION 02:06:34.76 12,80 02:06:34.76
254 TRINCHESE PAOLO M M4 30 TEAM K-ONE ASD 02:07:04.66 12,75 02:07:04.66
255 GAMBERONI ANDREA M ELMT 20 TEAM K-ONE ASD 02:07:05.76 12,75 02:07:05.76
256 GILLI MIRCO M M2 41 POL. SPILAMBERTESE 02:07:06.66 12,75 02:07:06.66
257 GEMINIANI CLAUDIO M M7 7 ASD TEAM COMACO 02:07:11.16 12,74 02:07:11.16
258 PARENTELLI NICOLA M ELMT 21 GS BULGARNO´ BIKE 2008 02:07:28.41 12,71 02:07:28.41
259 MANIERI GIANMARCO M ELMT 22 AS TARTANA BIKE 02:07:49.41 12,67 02:07:49.41
260 CARATI STEFANO M M4 31 TEAM K-ONE ASD 02:08:34.91 12,60 02:08:34.91
261 CHERUBIN LAURA F MW1 4 ASD BICIVERDE MONSELICE 02:08:37.66 12,60 02:08:37.66
262 GASTALDI CHIARA F MW1 5 ROMAGNA BIKE GRANDI EVENTI 02:08:52.16 12,57 02:08:52.16
263 TOSI WIDMER M M7 8 SPACCO ASD 02:09:00.67 12,56 02:09:00.67
264 GATTI MATTEO M ELMT 23 180 BPM 02:09:18.67 12,53 02:09:18.67
265 BIANCHI ROBERTO M M4 32 BAMBANA BIKE 02:10:01.43 12,46 02:10:01.43
266 NANNI LUCA M ELMT 24 HOBBY BIKE CLUB MTB 02:10:13.93 12,44 02:10:13.93
267 GAGLIANO CLARA F MW2 5 BAMBANA BIKE 02:11:28.94 12,32 02:11:28.94
268 COTTIGNOLA GIUSEPPE M M5 36 ASD TEAM COMACO 02:12:08.94 12,26 02:12:08.94
269 FILIPPUCCI GUSTAVO M M5 37 BAMBANA BIKE 02:12:32.69 12,22 02:12:32.69
270 PELLEGRINI MARCO M M6 19 BAMBANA BIKE 02:12:42.69 12,21 02:12:42.69
271 ANGIOLI ALEXANDER M M2 42 PONTESANTO CESI APD 02:12:44.94 12,20 02:12:44.94
272 NANNETTI ALBERTO M 2S 35 180 BPM 02:12:58.44 12,18 02:12:58.44
273 CHIOCCIOLINI DANIELA F MW2 6 180 BPM 02:13:01.19 12,18 02:13:01.19
274 COLLINI LUCA M ELMT 25 GS BULGARNO´ BIKE 2008 02:13:02.45 12,18 02:13:02.45
275 TAMPELLINI GIANLUCA M 2S 36 180 BPM 02:13:38.76 12,12 02:13:38.76
276 BALDUCCI ANTONELLA F MW2 7 SC VELOCIRAPTOR 02:15:51.94 11,92 02:15:51.94
277 ADANI JAMES M M3 32 S.C.CERETOLESE 1969 02:18:02.45 11,74 02:18:02.45
278 MALDINA LORENZO M M5 38 TEAM K-ONE ASD 02:19:54.95 11,58 02:19:54.95
279 BELLAGAMBA MATTIA M M2 43 GS TORPADO SURFING SHOP SPORT PROMOTION 02:23:19.21 11,30 02:23:19.21
280 DE BONIS ENEA M M3 33 GS TORPADO SURFING SHOP SPORT PROMOTION 02:23:20.46 11,30 02:23:20.46
281 BALDISSERRI PIETRO M M6 20 GS TORPADO SURFING SHOP SPORT PROMOTION 02:23:21.71 11,30 02:23:21.71
282 SANTOLI BRUNO M M5 39 ASD EXTREME BIKE 02:23:31.46 11,29 02:23:31.46
283 CORTINI DONATELLA F MW2 8 TEAM PASSION FAENTINA 02:25:43.71 11,12 02:25:43.71
284 GASTALDI CARLO M M5 40 SC VELOCIRAPTOR 02:26:12.46 11,08 02:26:12.46

CORTO - 14.0 Km

Pos Atleta Sesso Cat PosC Team Tempo Media RTime
1 NERI TOMMASO M ALL 1 TEAM K-ONE ASD 01:05:26.62 12,84 01:05:26.62
2 TONTI ANDREA M ALL 2 ASD LE SALINE NATURA E SPORT 01:06:46.62 12,58 01:06:46.62
3 TOZZI MATTIA M ALL 3 ASD LE SALINE NATURA E SPORT 01:10:24.63 11,93 01:10:24.63
4 SASSATELLI TOMMASO M ES 1 ASD LEONARDI RACING TEAM 01:15:21.40 11,15 01:15:21.40
5 BANDINI ALESSANDRO M ALL 4 180 BPM 01:15:21.58 11,15 01:15:21.58
6 PARINI DANIELE M ES 2 180 BPM 01:17:05.15 10,90 01:17:05.15
7 PRUCCOLI ANDREA M ALL 5 ASD LE SALINE NATURA E SPORT 01:19:22.65 10,58 01:19:22.65
8 ANTONELLI ERIK M ALL 6 ASD LE SALINE NATURA E SPORT 01:22:42.39 10,16 01:22:42.39
9 BOLOGNA GIANMARCO M ES 3 ASD LE SALINE NATURA E SPORT 01:24:07.39 9,99 01:24:07.39
10 GUAGNELLI ALESSANDRO M ALL 7 ASD LE SALINE NATURA E SPORT 01:24:14.39 9,97 01:24:14.39
11 MORRI ALESSIA F ALL 8 ASD LE SALINE NATURA E SPORT 01:25:11.64 9,86 01:25:11.64
12 SERAFINI LORENZO M ES 4 ASD LE SALINE NATURA E SPORT 01:29:45.65 9,36 01:29:45.65
13 MENGOZZI MARIA F ALL 9 ASD LE SALINE NATURA E SPORT 01:30:35.15 9,27 01:30:35.15
14 MAROTTA VINCENZO M ALL 10 ASD LE SALINE NATURA E SPORT 01:35:28.41 8,80 01:35:28.41